TFM - Tactical Decision Aid (Experimental) INFO Settings
ID: Runway Winds: CIG/VIS Threshold: METAR Board: Map:

KMEI - Meridian-Key Field

Updated at: 0256 UTC 21 Jan 2018
Latest TAF at: 2320 UTC 20 Jan 2018

TAF Board

Time0158Z21/03Z21/04Z21/05Z21/06Z21/07Z21/08Z21/09Z21/10Z21/11Z21/12Z21/13Z21/14Z21/15Z
TypeOBSPRVLPRVLPRVLPRVLPRVLPRVLPRVLPRVLPRVLPRVLPRVLPRVLPRVL
VIS10>6>6>6>6>6>6>6>6>6>6>6>6>6
CIG--50505050505050505050505050
CoverCLRBKNBKNBKNBKNBKNBKNBKNBKNBKNBKNBKNBKNBKN
FltCatVFRVFRVFRVFRVFRVFRVFRVFRVFRVFRVFRVFRVFRVFR
WX----------------------------
WDirVRB170170170170170170170170170170170170170
WSpd07777777777777
WGst----------------------------
TAF
KMEI 202320Z 2100/2124 17007KT P6SM BKN050

METAR Board

Time20/15Z 20/16Z 20/17Z 20/18Z 20/19Z 20/20Z 20/21Z 20/22Z 20/23Z 21/00Z 21/01Z 21/02Z
VIS10 10 10 10 10 10 10 10 10 10 10 10
CIG60 60 60 65 -- -- -- -- 49 49 -- --
CoverOVCOVCOVCOVCCLRCLRCLRSCTBKNOVCFEWCLR
FltCatVFRVFRVFRVFRVFRVFRVFRVFRVFRVFRVFRVFR
WX------------------------
WDir2101901801702002202001601501501700
WSpd4 5 9 8 12 11 10 7 6 7 7 0
WGst-- -- -- -- -- 16 16 -- -- -- -- --
METAR
KMEI 201458Z 21004KT 10SM OVC060 09/M02 A3028 RMK AO2 SLP254 T00891022 53006
KMEI 201558Z 19005KT 10SM OVC060 12/M01 A3030 RMK AO2 SLP258 T01171006
KMEI 201658Z 18009KT 10SM OVC060 16/02 A3028 RMK AO2 SLP253 T01560017
KMEI 201758Z 17008KT 10SM OVC065 18/03 A3025 RMK AO2 SLP242 T01780028 10178 20017 58011
KMEI 201858Z 20012KT 10SM CLR 19/04 A3021 RMK AO2 SLP228 T01890044
KMEI 201958Z 22011G16KT 10SM CLR 21/04 A3019 RMK AO2 SLP220 T02060039
KMEI 202058Z 20010G16KT 10SM CLR 21/05 A3018 RMK AO2 SLP220 T02060050 56022
KMEI 202158Z 16007KT 10SM SCT047 19/07 A3019 RMK AO2 SLP223 T01890067
KMEI 202258Z 15006KT 10SM BKN049 18/07 A3020 RMK AO2 SLP225 T01780072
KMEI 202358Z 15007KT 10SM OVC049 17/07 A3020 RMK AO2 SLP225 T01720072 10211 20167 51005
KMEI 210058Z 17007KT 10SM FEW047 14/07 A3021 RMK AO2 SLP229 T01440067
KMEI 210158Z 00000KT 10SM CLR 11/07 A3022 RMK AO2 SLP232 T01060067

TAF/METAR Board Legend

Potential Impact
  None Marginal Slight Moderate High
Visibility (sm) >5 3≤X≤5 2≤X<3 0.5≤X<2 <0.5
Ceiling (100 ft) >30 10≤X≤30 6≤X<10 2≤X<6 <2
Wind Speed (kt) <10 10≤X<20 20≤X<30 ≥30
Wind Gust (kt) <15 15≤X<25 25≤X<35 ≥35
Weather No Wx Reported VCTS -TS,-FZRA TS,FZRA +TS,+FZRA